sensor_id;sensor_type;location;lat;lon;timestamp;pressure;altitude;pressure_sealevel;temperature;humidity
12801;BME280;6464;42.494;27.470;2022-10-16T05:08:51;102434.25;;;12.00;100.00
12801;BME280;6464;42.494;27.470;2022-10-16T05:11:23;102397.16;;;11.83;100.00
12801;BME280;6464;42.494;27.470;2022-10-16T05:14:02;102352.13;;;11.64;100.00
12801;BME280;6464;42.494;27.470;2022-10-16T05:16:35;102303.66;;;11.51;100.00
12801;BME280;6464;42.494;27.470;2022-10-16T05:19:10;102458.13;;;12.42;100.00
12801;BME280;6464;42.494;27.470;2022-10-16T05:21:39;102294.81;;;11.50;100.00
12801;BME280;6464;42.494;27.470;2022-10-16T05:24:14;102479.34;;;12.71;100.00
12801;BME280;6464;42.494;27.470;2022-10-16T05:26:44;102308.97;;;11.62;100.00
12801;BME280;6464;42.494;27.470;2022-10-16T05:29:26;102370.78;;;12.13;100.00
12801;BME280;6464;42.494;27.470;2022-10-16T05:32:08;102319.56;;;11.77;100.00
12801;BME280;6464;42.494;27.470;2022-10-16T05:34:37;102328.44;;;11.90;100.00
12801;BME280;6464;42.494;27.470;2022-10-16T05:37:13;102323.16;;;11.90;100.00
12801;BME280;6464;42.494;27.470;2022-10-16T05:39:47;102436.09;;;12.73;100.00
12801;BME280;6464;42.494;27.470;2022-10-16T05:42:19;102429.00;;;13.00;100.00
12801;BME280;6464;42.494;27.470;2022-10-16T05:47:42;102364.63;;;12.82;100.00
12801;BME280;6464;42.494;27.470;2022-10-16T05:50:40;102372.56;;;12.73;100.00
12801;BME280;6464;42.494;27.470;2022-10-16T05:53:08;102538.41;;;13.87;100.00
12801;BME280;6464;42.494;27.470;2022-10-16T05:55:40;102382.25;;;12.94;100.00
12801;BME280;6464;42.494;27.470;2022-10-16T05:58:08;102394.59;;;13.06;100.00
12801;BME280;6464;42.494;27.470;2022-10-16T06:00:36;102382.22;;;13.08;100.00
12801;BME280;6464;42.494;27.470;2022-10-16T06:03:05;102540.13;;;14.05;100.00
12801;BME280;6464;42.494;27.470;2022-10-16T06:05:34;102515.47;;;13.79;100.00
12801;BME280;6464;42.494;27.470;2022-10-16T06:08:02;102467.88;;;13.36;100.00
12801;BME280;6464;42.494;27.470;2022-10-16T06:10:30;102447.53;;;13.44;100.00
12801;BME280;6464;42.494;27.470;2022-10-16T06:13:07;102572.75;;;14.32;100.00
12801;BME280;6464;42.494;27.470;2022-10-16T06:15:36;102596.59;;;14.46;100.00
12801;BME280;6464;42.494;27.470;2022-10-16T06:18:07;102462.38;;;13.86;100.00
12801;BME280;6464;42.494;27.470;2022-10-16T06:20:44;102418.28;;;13.66;100.00
12801;BME280;6464;42.494;27.470;2022-10-16T06:23:14;102512.59;;;14.26;100.00
12801;BME280;6464;42.494;27.470;2022-10-16T06:25:42;102586.63;;;14.89;100.00
12801;BME280;6464;42.494;27.470;2022-10-16T06:28:17;102552.31;;;14.55;100.00
12801;BME280;6464;42.494;27.470;2022-10-16T06:30:45;102429.72;;;13.80;100.00
12801;BME280;6464;42.494;27.470;2022-10-16T06:33:23;102427.91;;;13.89;100.00
12801;BME280;6464;42.494;27.470;2022-10-16T06:35:51;102607.75;;;15.07;100.00
12801;BME280;6464;42.494;27.470;2022-10-16T06:38:20;102450.78;;;14.13;100.00
12801;BME280;6464;42.494;27.470;2022-10-16T06:40:48;102530.09;;;14.72;100.00
12801;BME280;6464;42.494;27.470;2022-10-16T06:43:32;102454.19;;;14.34;100.00
12801;BME280;6464;42.494;27.470;2022-10-16T06:46:14;102471.81;;;14.43;100.00
12801;BME280;6464;42.494;27.470;2022-10-16T06:48:46;102613.75;;;15.32;100.00
12801;BME280;6464;42.494;27.470;2022-10-16T06:51:20;102519.47;;;14.72;100.00
12801;BME280;6464;42.494;27.470;2022-10-16T06:53:50;102500.00;;;14.68;100.00
12801;BME280;6464;42.494;27.470;2022-10-16T06:56:25;102622.50;;;15.47;100.00
12801;BME280;6464;42.494;27.470;2022-10-16T06:58:55;102507.81;;;14.88;100.00
12801;BME280;6464;42.494;27.470;2022-10-16T07:01:24;102635.66;;;15.70;100.00
12801;BME280;6464;42.494;27.470;2022-10-16T07:03:52;102636.47;;;15.78;100.00
12801;BME280;6464;42.494;27.470;2022-10-16T07:06:25;102448.53;;;14.84;100.00
12801;BME280;6464;42.494;27.470;2022-10-16T07:08:54;102544.53;;;15.48;100.00
12801;BME280;6464;42.494;27.470;2022-10-16T07:11:34;102468.84;;;14.88;100.00
12801;BME280;6464;42.494;27.470;2022-10-16T07:14:22;102645.00;;;16.09;100.00
12801;BME280;6464;42.494;27.470;2022-10-16T07:16:52;102531.94;;;15.65;100.00
12801;BME280;6464;42.494;27.470;2022-10-16T07:19:21;102589.13;;;16.10;100.00
12801;BME280;6464;42.494;27.470;2022-10-16T07:21:55;102659.63;;;16.51;100.00
12801;BME280;6464;42.494;27.470;2022-10-16T07:24:24;102657.69;;;16.62;100.00
12801;BME280;6464;42.494;27.470;2022-10-16T07:26:52;102600.63;;;16.09;100.00
12801;BME280;6464;42.494;27.470;2022-10-16T07:29:22;102620.28;;;15.99;100.00
12801;BME280;6464;42.494;27.470;2022-10-16T07:31:50;102496.75;;;15.37;100.00
12801;BME280;6464;42.494;27.470;2022-10-16T07:34:22;102517.16;;;15.35;100.00
12801;BME280;6464;42.494;27.470;2022-10-16T07:36:52;102551.41;;;15.72;100.00
12801;BME280;6464;42.494;27.470;2022-10-16T07:39:25;102559.53;;;15.53;100.00
12801;BME280;6464;42.494;27.470;2022-10-16T07:41:56;102478.22;;;15.28;100.00
12801;BME280;6464;42.494;27.470;2022-10-16T07:44:33;102651.75;;;16.39;100.00
12801;BME280;6464;42.494;27.470;2022-10-16T07:50:33;102666.13;;;17.00;100.00
12801;BME280;6464;42.494;27.470;2022-10-16T07:53:07;102540.94;;;16.29;100.00
12801;BME280;6464;42.494;27.470;2022-10-16T07:55:45;102558.50;;;16.45;100.00
12801;BME280;6464;42.494;27.470;2022-10-16T07:58:20;102691.47;;;17.28;100.00
12801;BME280;6464;42.494;27.470;2022-10-16T08:12:26;102529.63;;;17.30;100.00
12801;BME280;6464;42.494;27.470;2022-10-16T08:17:29;102597.25;;;17.79;100.00
12801;BME280;6464;42.494;27.470;2022-10-16T08:20:00;102699.09;;;18.53;100.00
12801;BME280;6464;42.494;27.470;2022-10-16T08:22:33;102529.06;;;17.62;100.00
12801;BME280;6464;42.494;27.470;2022-10-16T08:25:07;102717.47;;;18.70;100.00
12801;BME280;6464;42.494;27.470;2022-10-16T08:30:29;102679.00;;;18.79;100.00
12801;BME280;6464;42.494;27.470;2022-10-16T08:32:58;102578.84;;;18.11;100.00
12801;BME280;6464;42.494;27.470;2022-10-16T08:35:27;102604.22;;;18.34;100.00
12801;BME280;6464;42.494;27.470;2022-10-16T08:37:55;102548.56;;;17.66;100.00
12801;BME280;6464;42.494;27.470;2022-10-16T08:40:25;102627.38;;;18.32;100.00
12801;BME280;6464;42.494;27.470;2022-10-16T08:43:09;102739.59;;;21.23;100.00
12801;BME280;6464;42.494;27.470;2022-10-16T08:46:03;102768.06;;;23.12;100.00
12801;BME280;6464;42.494;27.470;2022-10-16T08:48:40;102713.22;;;23.80;100.00
12801;BME280;6464;42.494;27.470;2022-10-16T08:51:21;102825.59;;;26.15;100.00
12801;BME280;6464;42.494;27.470;2022-10-16T08:53:55;102735.06;;;26.05;100.00
12801;BME280;6464;42.494;27.470;2022-10-16T08:56:25;102848.03;;;27.53;100.00
12801;BME280;6464;42.494;27.470;2022-10-16T08:58:53;102841.00;;;27.17;100.00
12801;BME280;6464;42.494;27.470;2022-10-16T09:01:25;102852.19;;;27.91;100.00
12801;BME280;6464;42.494;27.470;2022-10-16T09:04:30;102809.59;;;28.68;100.00
12801;BME280;6464;42.494;27.470;2022-10-16T09:07:08;102809.03;;;29.20;100.00
12801;BME280;6464;42.494;27.470;2022-10-16T09:09:53;102833.88;;;31.40;100.00
12801;BME280;6464;42.494;27.470;2022-10-16T09:12:26;102871.66;;;31.57;100.00
12801;BME280;6464;42.494;27.470;2022-10-16T09:15:05;102905.09;;;32.45;100.00
12801;BME280;6464;42.494;27.470;2022-10-16T09:17:44;102900.69;;;32.67;100.00
12801;BME280;6464;42.494;27.470;2022-10-16T09:20:19;102846.81;;;32.10;100.00
12801;BME280;6464;42.494;27.470;2022-10-16T09:22:52;102908.03;;;33.13;100.00
12801;BME280;6464;42.494;27.470;2022-10-16T09:25:21;102852.72;;;32.98;100.00
12801;BME280;6464;42.494;27.470;2022-10-16T09:27:53;102903.53;;;33.34;98.37
12801;BME280;6464;42.494;27.470;2022-10-16T09:30:21;102874.22;;;33.03;100.00
12801;BME280;6464;42.494;27.470;2022-10-16T09:32:52;102880.56;;;32.68;100.00
12801;BME280;6464;42.494;27.470;2022-10-16T09:35:24;102817.53;;;33.27;99.24
12801;BME280;6464;42.494;27.470;2022-10-16T09:37:54;102899.91;;;34.33;93.96
12801;BME280;6464;42.494;27.470;2022-10-16T09:40:26;102839.06;;;32.63;94.56
12801;BME280;6464;42.494;27.470;2022-10-16T09:43:00;102876.69;;;33.17;99.01
12801;BME280;6464;42.494;27.470;2022-10-16T09:45:29;102900.59;;;34.46;89.12
12801;BME280;6464;42.494;27.470;2022-10-16T09:48:01;102872.38;;;35.28;82.65
12801;BME280;6464;42.494;27.470;2022-10-16T09:50:38;102901.22;;;34.50;82.86
12801;BME280;6464;42.494;27.470;2022-10-16T09:53:08;102897.72;;;35.41;80.13
12801;BME280;6464;42.494;27.470;2022-10-16T09:55:47;102899.31;;;34.71;83.77
12801;BME280;6464;42.494;27.470;2022-10-16T09:58:14;102848.66;;;34.24;82.36
12801;BME280;6464;42.494;27.470;2022-10-16T10:00:42;102850.22;;;33.06;87.94
12801;BME280;6464;42.494;27.470;2022-10-16T10:03:35;102876.94;;;33.59;87.84
12801;BME280;6464;42.494;27.470;2022-10-16T10:06:07;102888.50;;;34.17;88.58
12801;BME280;6464;42.494;27.470;2022-10-16T10:08:53;102801.31;;;32.57;92.66
12801;BME280;6464;42.494;27.470;2022-10-16T10:11:38;102893.25;;;34.15;87.28
12801;BME280;6464;42.494;27.470;2022-10-16T10:14:21;102890.59;;;33.25;85.26
12801;BME280;6464;42.494;27.470;2022-10-16T10:16:50;102814.50;;;31.06;100.00
12801;BME280;6464;42.494;27.470;2022-10-16T10:19:20;102815.72;;;29.84;100.00
12801;BME280;6464;42.494;27.470;2022-10-16T10:21:49;102791.56;;;28.81;100.00
12801;BME280;6464;42.494;27.470;2022-10-16T10:24:18;102666.44;;;26.74;100.00
12801;BME280;6464;42.494;27.470;2022-10-16T10:26:51;102655.06;;;27.62;100.00
12801;BME280;6464;42.494;27.470;2022-10-16T10:29:32;102708.84;;;29.69;100.00
12801;BME280;6464;42.494;27.470;2022-10-16T10:32:09;102803.91;;;31.27;100.00
12801;BME280;6464;42.494;27.470;2022-10-16T10:34:52;102867.47;;;33.63;90.41
12801;BME280;6464;42.494;27.470;2022-10-16T10:37:44;102895.75;;;35.53;81.36
12801;BME280;6464;42.494;27.470;2022-10-16T10:40:27;102891.41;;;36.29;75.12
12801;BME280;6464;42.494;27.470;2022-10-16T10:43:01;102865.59;;;35.72;72.95
12801;BME280;6464;42.494;27.470;2022-10-16T10:45:38;102897.63;;;36.41;71.89
12801;BME280;6464;42.494;27.470;2022-10-16T10:48:21;102900.47;;;36.88;67.54
12801;BME280;6464;42.494;27.470;2022-10-16T10:50:57;102880.75;;;35.67;75.88
12801;BME280;6464;42.494;27.470;2022-10-16T10:53:35;102879.03;;;35.66;75.07
12801;BME280;6464;42.494;27.470;2022-10-16T10:56:29;102889.91;;;35.87;72.57
12801;BME280;6464;42.494;27.470;2022-10-16T10:59:43;102758.75;;;34.90;71.89
12801;BME280;6464;42.494;27.470;2022-10-16T11:03:09;102761.16;;;34.74;70.14
12801;BME280;6464;42.494;27.470;2022-10-16T11:06:28;102900.53;;;36.59;67.37
12801;BME280;6464;42.494;27.470;2022-10-16T11:09:13;102911.69;;;36.48;65.44
12801;BME280;6464;42.494;27.470;2022-10-16T11:11:50;102922.69;;;37.89;60.03
12801;BME280;6464;42.494;27.470;2022-10-16T11:14:33;102791.47;;;36.87;59.01
12801;BME280;6464;42.494;27.470;2022-10-16T11:20:13;102911.53;;;38.44;55.51
12801;BME280;6464;42.494;27.470;2022-10-16T11:23:05;102856.59;;;36.96;56.96
12801;BME280;6464;42.494;27.470;2022-10-16T11:26:28;102751.56;;;36.26;67.64
12801;BME280;6464;42.494;27.470;2022-10-16T11:28:46;102851.53;;;37.39;72.98
12801;BME280;6464;42.494;27.470;2022-10-16T11:31:30;102806.38;;;36.28;73.85
12801;BME280;6464;42.494;27.470;2022-10-16T11:34:15;102734.88;;;30.77;100.00
12801;BME280;6464;42.494;27.470;2022-10-16T11:37:02;102696.97;;;32.29;100.00
12801;BME280;6464;42.494;27.470;2022-10-16T11:39:38;102796.19;;;32.98;100.00
12801;BME280;6464;42.494;27.470;2022-10-16T11:42:23;102778.06;;;33.84;100.00
12801;BME280;6464;42.494;27.470;2022-10-16T11:48:12;102738.75;;;33.10;100.00
12801;BME280;6464;42.494;27.470;2022-10-16T11:50:53;102799.31;;;34.66;100.00
12801;BME280;6464;42.494;27.470;2022-10-16T11:53:45;102738.31;;;34.64;95.23
12801;BME280;6464;42.494;27.470;2022-10-16T11:56:25;102845.84;;;35.88;90.91
12801;BME280;6464;42.494;27.470;2022-10-16T11:59:33;102769.38;;;35.84;90.23
12801;BME280;6464;42.494;27.470;2022-10-16T12:02:34;102682.91;;;34.09;100.00
12801;BME280;6464;42.494;27.470;2022-10-16T12:05:47;102758.13;;;34.46;99.80
12801;BME280;6464;42.494;27.470;2022-10-16T12:08:23;102708.00;;;33.72;100.00
12801;BME280;6464;42.494;27.470;2022-10-16T12:11:20;102697.41;;;33.35;100.00
12801;BME280;6464;42.494;27.470;2022-10-16T12:13:51;102809.00;;;33.64;100.00
12801;BME280;6464;42.494;27.470;2022-10-16T12:16:31;102762.81;;;32.37;100.00
12801;BME280;6464;42.494;27.470;2022-10-16T12:19:37;102843.38;;;34.74;100.00
12801;BME280;6464;42.494;27.470;2022-10-16T12:22:16;102683.44;;;34.03;100.00
12801;BME280;6464;42.494;27.470;2022-10-16T12:24:54;102810.88;;;36.10;92.78
12801;BME280;6464;42.494;27.470;2022-10-16T12:27:38;102752.34;;;35.99;87.25
12801;BME280;6464;42.494;27.470;2022-10-16T12:30:22;102884.03;;;36.30;88.89
12801;BME280;6464;42.494;27.470;2022-10-16T12:32:54;102755.50;;;36.14;87.72
12801;BME280;6464;42.494;27.470;2022-10-16T12:35:33;102813.66;;;36.76;83.83
12801;BME280;6464;42.494;27.470;2022-10-16T12:38:14;102847.88;;;35.96;90.25
12801;BME280;6464;42.494;27.470;2022-10-16T12:40:45;102852.88;;;35.71;89.62
12801;BME280;6464;42.494;27.470;2022-10-16T12:43:38;102757.59;;;33.46;100.00
12801;BME280;6464;42.494;27.470;2022-10-16T12:46:35;102680.34;;;32.99;100.00
12801;BME280;6464;42.494;27.470;2022-10-16T12:49:28;102691.81;;;34.32;100.00
12801;BME280;6464;42.494;27.470;2022-10-16T12:52:01;102738.97;;;35.27;96.24
12801;BME280;6464;42.494;27.470;2022-10-16T12:54:35;102811.13;;;35.18;94.50
12801;BME280;6464;42.494;27.470;2022-10-16T12:57:57;102713.41;;;33.83;100.00
12801;BME280;6464;42.494;27.470;2022-10-16T13:00:41;102721.59;;;33.83;100.00
12801;BME280;6464;42.494;27.470;2022-10-16T13:03:57;102708.88;;;34.66;100.00
12801;BME280;6464;42.494;27.470;2022-10-16T13:06:53;102713.16;;;34.49;100.00
12801;BME280;6464;42.494;27.470;2022-10-16T13:09:47;102646.34;;;32.47;100.00
12801;BME280;6464;42.494;27.470;2022-10-16T13:12:38;102765.91;;;32.44;100.00
12801;BME280;6464;42.494;27.470;2022-10-16T13:15:22;102650.56;;;30.76;100.00
12801;BME280;6464;42.494;27.470;2022-10-16T13:18:12;102712.69;;;31.79;100.00
12801;BME280;6464;42.494;27.470;2022-10-16T13:21:01;102679.06;;;32.03;100.00
12801;BME280;6464;42.494;27.470;2022-10-16T13:23:41;102705.31;;;30.96;100.00
12801;BME280;6464;42.494;27.470;2022-10-16T13:26:26;102790.13;;;31.41;100.00
12801;BME280;6464;42.494;27.470;2022-10-16T13:28:59;102794.69;;;32.94;100.00
12801;BME280;6464;42.494;27.470;2022-10-16T13:31:28;102759.84;;;30.71;100.00
12801;BME280;6464;42.494;27.470;2022-10-16T13:33:56;102724.38;;;30.96;100.00
12801;BME280;6464;42.494;27.470;2022-10-16T13:36:28;102775.53;;;30.80;100.00
12801;BME280;6464;42.494;27.470;2022-10-16T13:39:11;102768.78;;;31.22;100.00
12801;BME280;6464;42.494;27.470;2022-10-16T13:41:39;102753.31;;;30.08;100.00
12801;BME280;6464;42.494;27.470;2022-10-16T13:44:14;102755.75;;;31.02;100.00
12801;BME280;6464;42.494;27.470;2022-10-16T13:46:42;102731.63;;;30.72;100.00
12801;BME280;6464;42.494;27.470;2022-10-16T13:49:13;102769.50;;;30.75;100.00
12801;BME280;6464;42.494;27.470;2022-10-16T13:51:53;102740.63;;;30.34;100.00
12801;BME280;6464;42.494;27.470;2022-10-16T13:54:21;102708.25;;;29.37;100.00
12801;BME280;6464;42.494;27.470;2022-10-16T13:56:48;102746.03;;;29.28;100.00
12801;BME280;6464;42.494;27.470;2022-10-16T13:59:25;102763.41;;;30.33;100.00
12801;BME280;6464;42.494;27.470;2022-10-16T14:01:55;102737.47;;;29.34;100.00
12801;BME280;6464;42.494;27.470;2022-10-16T14:04:31;102698.19;;;28.55;100.00
12801;BME280;6464;42.494;27.470;2022-10-16T14:07:00;102704.63;;;28.24;100.00
12801;BME280;6464;42.494;27.470;2022-10-16T14:09:28;102729.03;;;28.54;100.00
12801;BME280;6464;42.494;27.470;2022-10-16T14:11:57;102735.22;;;28.99;100.00
12801;BME280;6464;42.494;27.470;2022-10-16T14:14:27;102737.84;;;29.01;100.00
12801;BME280;6464;42.494;27.470;2022-10-16T14:16:59;102658.56;;;27.18;100.00
12801;BME280;6464;42.494;27.470;2022-10-16T14:19:28;102714.84;;;27.13;100.00
12801;BME280;6464;42.494;27.470;2022-10-16T14:21:56;102701.81;;;26.55;100.00
12801;BME280;6464;42.494;27.470;2022-10-16T14:24:31;102713.06;;;27.12;100.00
12801;BME280;6464;42.494;27.470;2022-10-16T14:26:59;102717.06;;;27.52;100.00
12801;BME280;6464;42.494;27.470;2022-10-16T14:29:27;102707.22;;;26.37;100.00
12801;BME280;6464;42.494;27.470;2022-10-16T14:31:58;102632.78;;;25.26;100.00
12801;BME280;6464;42.494;27.470;2022-10-16T14:34:31;102645.22;;;25.11;100.00
12801;BME280;6464;42.494;27.470;2022-10-16T14:37:00;102699.50;;;25.24;100.00
12801;BME280;6464;42.494;27.470;2022-10-16T14:39:34;102700.94;;;25.31;100.00
12801;BME280;6464;42.494;27.470;2022-10-16T14:42:02;102618.56;;;23.88;100.00
12801;BME280;6464;42.494;27.470;2022-10-16T14:44:31;102600.84;;;23.19;100.00
12801;BME280;6464;42.494;27.470;2022-10-16T14:47:07;102676.94;;;23.01;100.00
12801;BME280;6464;42.494;27.470;2022-10-16T14:49:37;102679.81;;;22.49;100.00
12801;BME280;6464;42.494;27.470;2022-10-16T14:52:08;102625.78;;;22.07;100.00
12801;BME280;6464;42.494;27.470;2022-10-16T14:54:38;102689.97;;;21.37;100.00
12801;BME280;6464;42.494;27.470;2022-10-16T14:57:16;102638.47;;;20.37;100.00
12801;BME280;6464;42.494;27.470;2022-10-16T14:59:45;102643.84;;;19.70;100.00
12801;BME280;6464;42.494;27.470;2022-10-16T15:02:19;102695.03;;;19.56;100.00
12801;BME280;6464;42.494;27.470;2022-10-16T15:04:48;102670.84;;;19.23;100.00
12801;BME280;6464;42.494;27.470;2022-10-16T15:07:16;102580.53;;;18.15;100.00
12801;BME280;6464;42.494;27.470;2022-10-16T15:09:45;102499.47;;;17.28;100.00
12801;BME280;6464;42.494;27.470;2022-10-16T15:12:13;102545.59;;;17.33;100.00
12801;BME280;6464;42.494;27.470;2022-10-16T15:14:40;102573.41;;;17.18;100.00
12801;BME280;6464;42.494;27.470;2022-10-16T15:17:08;102685.41;;;17.72;100.00
12801;BME280;6464;42.494;27.470;2022-10-16T15:19:36;102682.91;;;17.65;100.00
12801;BME280;6464;42.494;27.470;2022-10-16T15:22:20;102554.91;;;16.49;100.00
12801;BME280;6464;42.494;27.470;2022-10-16T15:24:50;102519.63;;;16.29;100.00
12801;BME280;6464;42.494;27.470;2022-10-16T15:27:21;102699.75;;;17.10;100.00
12801;BME280;6464;42.494;27.470;2022-10-16T15:29:49;102493.66;;;15.80;100.00
12801;BME280;6464;42.494;27.470;2022-10-16T15:32:16;102570.44;;;16.15;100.00
12801;BME280;6464;42.494;27.470;2022-10-16T15:34:47;102567.03;;;15.99;100.00
12801;BME280;6464;42.494;27.470;2022-10-16T15:37:15;102608.56;;;16.17;100.00
12801;BME280;6464;42.494;27.470;2022-10-16T15:39:44;102724.28;;;16.62;100.00
12801;BME280;6464;42.494;27.470;2022-10-16T15:42:13;102655.63;;;16.15;100.00
12801;BME280;6464;42.494;27.470;2022-10-16T15:44:41;102725.34;;;16.51;100.00
12801;BME280;6464;42.494;27.470;2022-10-16T15:47:10;102721.88;;;16.42;100.00
12801;BME280;6464;42.494;27.470;2022-10-16T15:49:39;102647.88;;;15.92;100.00
12801;BME280;6464;42.494;27.470;2022-10-16T15:52:06;102566.75;;;15.37;100.00
12801;BME280;6464;42.494;27.470;2022-10-16T15:54:34;102715.09;;;16.11;100.00
12801;BME280;6464;42.494;27.470;2022-10-16T15:57:01;102588.88;;;15.44;100.00
12801;BME280;6464;42.494;27.470;2022-10-16T15:59:30;102735.38;;;16.23;100.00
12801;BME280;6464;42.494;27.470;2022-10-16T16:01:58;102740.72;;;16.23;100.00
12801;BME280;6464;42.494;27.470;2022-10-16T16:04:30;102639.28;;;15.56;100.00
12801;BME280;6464;42.494;27.470;2022-10-16T16:06:57;102686.97;;;15.84;100.00
12801;BME280;6464;42.494;27.470;2022-10-16T16:09:25;102755.03;;;16.11;100.00
12801;BME280;6464;42.494;27.470;2022-10-16T16:11:52;102747.03;;;16.09;100.00
12801;BME280;6464;42.494;27.470;2022-10-16T16:14:20;102611.25;;;15.15;100.00
12801;BME280;6464;42.494;27.470;2022-10-16T16:16:49;102718.97;;;15.75;100.00
12801;BME280;6464;42.494;27.470;2022-10-16T16:19:16;102725.16;;;15.75;100.00
12801;BME280;6464;42.494;27.470;2022-10-16T16:21:46;102604.31;;;14.96;100.00
12801;BME280;6464;42.494;27.470;2022-10-16T16:24:14;102761.38;;;15.94;100.00
12801;BME280;6464;42.494;27.470;2022-10-16T16:26:42;102782.72;;;15.85;100.00
12801;BME280;6464;42.494;27.470;2022-10-16T16:29:12;102592.06;;;14.68;100.00
12801;BME280;6464;42.494;27.470;2022-10-16T16:31:40;102734.13;;;15.59;100.00
12801;BME280;6464;42.494;27.470;2022-10-16T16:34:10;102780.97;;;15.84;100.00
12801;BME280;6464;42.494;27.470;2022-10-16T16:36:38;102660.94;;;15.01;100.00
12801;BME280;6464;42.494;27.470;2022-10-16T16:39:08;102789.94;;;15.73;100.00
12801;BME280;6464;42.494;27.470;2022-10-16T16:41:36;102636.31;;;14.72;100.00
12801;BME280;6464;42.494;27.470;2022-10-16T16:44:05;102737.03;;;15.24;100.00
12801;BME280;6464;42.494;27.470;2022-10-16T16:46:34;102630.13;;;14.68;100.00
12801;BME280;6464;42.494;27.470;2022-10-16T16:49:02;102755.56;;;15.31;100.00
12801;BME280;6464;42.494;27.470;2022-10-16T16:51:31;102749.41;;;15.26;100.00
12801;BME280;6464;42.494;27.470;2022-10-16T16:53:59;102621.38;;;14.43;100.00
12801;BME280;6464;42.494;27.470;2022-10-16T16:56:28;102632.91;;;14.36;100.00
12801;BME280;6464;42.494;27.470;2022-10-16T16:58:57;102681.50;;;14.70;100.00
12801;BME280;6464;42.494;27.470;2022-10-16T17:01:26;102716.81;;;14.90;100.00
12801;BME280;6464;42.494;27.470;2022-10-16T17:03:56;102723.88;;;14.95;100.00
12801;BME280;6464;42.494;27.470;2022-10-16T17:06:26;102748.59;;;15.12;100.00
12801;BME280;6464;42.494;27.470;2022-10-16T17:08:57;102759.28;;;15.04;100.00
12801;BME280;6464;42.494;27.470;2022-10-16T17:11:26;102801.66;;;15.27;100.00
12801;BME280;6464;42.494;27.470;2022-10-16T17:13:56;102625.88;;;14.17;100.00
12801;BME280;6464;42.494;27.470;2022-10-16T17:16:25;102653.28;;;14.20;100.00
12801;BME280;6464;42.494;27.470;2022-10-16T17:18:54;102808.81;;;15.17;100.00
12801;BME280;6464;42.494;27.470;2022-10-16T17:21:22;102631.22;;;14.01;100.00
12801;BME280;6464;42.494;27.470;2022-10-16T17:23:53;102769.09;;;14.81;100.00
12801;BME280;6464;42.494;27.470;2022-10-16T17:26:21;102758.47;;;14.78;100.00
12801;BME280;6464;42.494;27.470;2022-10-16T17:28:51;102636.53;;;13.92;100.00
12801;BME280;6464;42.494;27.470;2022-10-16T17:31:21;102691.34;;;14.14;100.00
12801;BME280;6464;42.494;27.470;2022-10-16T17:33:49;102721.41;;;14.32;100.00
12801;BME280;6464;42.494;27.470;2022-10-16T17:36:18;102765.59;;;14.59;100.00
12801;BME280;6464;42.494;27.470;2022-10-16T17:38:48;102816.91;;;14.85;100.00
12801;BME280;6464;42.494;27.470;2022-10-16T17:41:18;102698.44;;;14.00;100.00
12801;BME280;6464;42.494;27.470;2022-10-16T17:43:51;102780.66;;;14.40;100.00
12801;BME280;6464;42.494;27.470;2022-10-16T17:46:20;102785.97;;;14.29;100.00
12801;BME280;6464;42.494;27.470;2022-10-16T17:48:49;102744.44;;;14.02;100.00
12801;BME280;6464;42.494;27.470;2022-10-16T17:51:20;102697.56;;;13.68;100.00
12801;BME280;6464;42.494;27.470;2022-10-16T17:53:48;102645.41;;;13.24;100.00
12801;BME280;6464;42.494;27.470;2022-10-16T17:56:16;102705.50;;;13.58;100.00
12801;BME280;6464;42.494;27.470;2022-10-16T17:58:47;102786.00;;;14.05;100.00
12801;BME280;6464;42.494;27.470;2022-10-16T18:01:18;102664.84;;;13.29;100.00
12801;BME280;6464;42.494;27.470;2022-10-16T18:03:48;102701.06;;;13.24;100.00
12801;BME280;6464;42.494;27.470;2022-10-16T18:06:16;102661.25;;;13.02;100.00
12801;BME280;6464;42.494;27.470;2022-10-16T18:08:46;102802.75;;;13.78;100.00
12801;BME280;6464;42.494;27.470;2022-10-16T18:11:14;102712.50;;;13.15;100.00
12801;BME280;6464;42.494;27.470;2022-10-16T18:13:41;102743.41;;;13.19;100.00
12801;BME280;6464;42.494;27.470;2022-10-16T18:16:11;102733.66;;;13.09;100.00
12801;BME280;6464;42.494;27.470;2022-10-16T18:18:41;102677.03;;;12.75;100.00
12801;BME280;6464;42.494;27.470;2022-10-16T18:21:11;102869.97;;;13.80;100.00
12801;BME280;6464;42.494;27.470;2022-10-16T18:23:39;102684.97;;;12.67;100.00
12801;BME280;6464;42.494;27.470;2022-10-16T18:26:07;102726.53;;;12.88;100.00
12801;BME280;6464;42.494;27.470;2022-10-16T18:28:37;102687.59;;;12.69;100.00
12801;BME280;6464;42.494;27.470;2022-10-16T18:31:06;102741.56;;;12.97;100.00
12801;BME280;6464;42.494;27.470;2022-10-16T18:33:36;102816.84;;;13.40;100.00
12801;BME280;6464;42.494;27.470;2022-10-16T18:36:08;102832.72;;;13.43;100.00
12801;BME280;6464;42.494;27.470;2022-10-16T18:38:36;102777.81;;;13.08;100.00
12801;BME280;6464;42.494;27.470;2022-10-16T18:41:06;102831.78;;;13.29;100.00
12801;BME280;6464;42.494;27.470;2022-10-16T18:43:34;102784.81;;;13.00;100.00
12801;BME280;6464;42.494;27.470;2022-10-16T18:46:05;102704.22;;;12.39;100.00
12801;BME280;6464;42.494;27.470;2022-10-16T18:48:33;102886.69;;;13.54;100.00
12801;BME280;6464;42.494;27.470;2022-10-16T18:51:08;102883.13;;;13.48;100.00
12801;BME280;6464;42.494;27.470;2022-10-16T18:53:36;102836.13;;;13.18;100.00
12801;BME280;6464;42.494;27.470;2022-10-16T18:56:06;102831.69;;;13.09;100.00